首页
METAR-TAF:

METAR-TAF

机场 :

坦帕國際機場

坦帕, 佛罗里达州, 美国

纬度: 27-57-41N, 经度: 082-32-25W, 海拔: 8米

当前天气观测

该预报发布于1小时和2分钟前的13:53 UTC
风速6节,风向东北
温度 15°C
湿度 72%
气压 1025 hPa
能見度: 16.1公里
少量云层高于4000英尺

METAR: KTPA 231353Z 05006KT 10SM FEW040 15/10 A3027 RMK AO2 SLP250 T01500100

时间: 09:55 (14:55 UTC)

预报

该预报发布于3小时和16分钟前的11:39 UTC
预报有效从23日的 12点(UTC)到 24日的 18点(UTC)
风速6节,风向东北
能見度: 10公里
天空无云
从 23日的 1700点(UTC)
风速7节,风向
能見度: 10公里
散云层高于4000英尺
从 23日的 2000点(UTC)
风速7节,风向西转西南
能見度: 10公里
散云层高于4000英尺
散云层高于25000英尺
从 23日的 2300点(UTC)
风速6节,风向北转西北
能見度: 10公里
散云层高于4000英尺
散云层高于25000英尺
从 24日的 0100点(UTC)
风速3节,风向多变
能見度: 10公里
少量云层高于3000英尺
散云层高于25000英尺
从 24日的 1400点(UTC)
风速8节,风向南转南东
能見度: 10公里
散云层高于3000英尺
散云层高于25000英尺

TAF: KTPA 231139Z 2312/2418 05006KT P6SM SKC FM231700 08007KT P6SM SCT040 FM232000 25007KT P6SM SCT040 SCT250 FM232300 33006KT P6SM SCT040 SCT250 FM240100 VRB03KT P6SM FEW030 SCT250 FM241400 16008KT P6SM SCT030 SCT250

超过4000个机场的气象观测和天气预报(METAR&TAF报告)。

可查询的气象台以黄色和红色小点在地图上表示。

将鼠标移到小点上方,可查看气象台名称。

然后点击查看天气观测和预报。

如需切换地图:点击带黑十字的绿色按钮放大地图;点击带横线的绿色按钮缩小地图;或者点击绿色箭头查看邻近地区的地图。


METAR-TAF: